Time,TemperatureF,DewpointF,PressureIn,WindDirection,WindDirectionDegrees,WindSpeedMPH,WindSpeedGustMPH,Humidity,HourlyPrecipIn,Conditions,Clouds,dailyrainin,SolarRadiationWatts/m^2,SoftwareType,DateUTC
2013-03-27 00:02:00,42.0,38.0,-100.00,NW,304,3.0,5.0,87,0.00,,,0.00,0.000000,,2013-03-27 07:02:00,
2013-03-27 00:12:00,42.0,38.0,-100.00,NW,304,3.0,5.0,87,0.00,,,0.00,0.000000,,2013-03-27 07:12:00,
2013-03-27 00:32:00,41.0,39.0,-100.00,NNW,327,4.0,7.0,91,0.01,,,0.01,0.000000,,2013-03-27 07:32:00,
2013-03-27 00:43:00,41.0,39.0,-100.00,NNW,327,4.0,7.0,91,0.01,,,0.01,0.000000,,2013-03-27 07:43:00,
2013-03-27 00:53:00,41.0,39.0,-100.00,NNW,327,4.0,7.0,91,0.01,,,0.01,0.000000,,2013-03-27 07:53:00,
2013-03-27 01:02:00,41.0,39.0,-100.00,NNW,327,4.0,7.0,91,0.01,,,0.01,0.000000,,2013-03-27 08:02:00,
2013-03-27 01:32:00,42.0,38.0,-100.00,NNW,331,3.0,5.0,86,0.00,,,0.01,0.000000,,2013-03-27 08:32:00,
2013-03-27 01:43:00,42.0,38.0,-100.00,NNW,331,3.0,5.0,86,0.00,,,0.01,0.000000,,2013-03-27 08:43:00,
2013-03-27 01:52:00,42.0,38.0,-100.00,NNW,331,3.0,5.0,86,0.00,,,0.01,0.000000,,2013-03-27 08:52:00,
2013-03-27 02:01:00,42.0,38.0,-100.00,NNW,331,3.0,5.0,86,0.00,,,0.01,0.000000,,2013-03-27 09:01:00,
2013-03-27 02:11:00,42.0,38.0,-100.00,NNW,331,3.0,5.0,86,0.00,,,0.01,0.000000,,2013-03-27 09:11:00,
2013-03-27 02:42:00,42.0,38.0,-100.00,NNW,336,4.0,5.0,86,0.00,,,0.01,0.000000,,2013-03-27 09:42:00,
2013-03-27 02:52:00,42.0,38.0,-100.00,NNW,336,4.0,5.0,86,0.00,,,0.01,0.000000,,2013-03-27 09:52:00,
2013-03-27 03:02:00,42.0,38.0,-100.00,NNW,336,4.0,5.0,86,0.00,,,0.01,0.000000,,2013-03-27 10:02:00,
2013-03-27 03:12:00,42.0,38.0,-100.00,NNW,336,4.0,5.0,86,0.00,,,0.01,0.000000,,2013-03-27 10:12:00,
2013-03-27 03:32:00,41.0,35.0,-100.00,WNW,299,2.0,4.0,79,0.00,,,0.01,0.000000,,2013-03-27 10:32:00,
2013-03-27 03:42:00,41.0,35.0,-100.00,WNW,299,2.0,4.0,79,0.00,,,0.01,0.000000,,2013-03-27 10:42:00,
2013-03-27 03:52:00,41.0,35.0,-100.00,WNW,299,2.0,4.0,79,0.00,,,0.01,0.000000,,2013-03-27 10:52:00,
2013-03-27 04:02:00,41.0,35.0,-100.00,WNW,299,2.0,4.0,79,0.00,,,0.01,0.000000,,2013-03-27 11:02:00,
2013-03-27 04:11:00,41.0,35.0,-100.00,WNW,299,2.0,4.0,79,0.00,,,0.01,0.000000,,2013-03-27 11:11:00,
2013-03-27 04:32:00,42.0,35.0,-100.00,East,84,2.0,4.0,77,0.00,,,0.01,0.000000,,2013-03-27 11:32:00,
2013-03-27 04:42:00,42.0,35.0,-100.00,East,84,2.0,4.0,77,0.00,,,0.01,0.000000,,2013-03-27 11:42:00,
2013-03-27 04:52:00,42.0,35.0,-100.00,East,84,2.0,4.0,77,0.00,,,0.01,0.000000,,2013-03-27 11:52:00,
2013-03-27 05:02:00,42.0,35.0,-100.00,East,84,2.0,4.0,77,0.00,,,0.01,0.000000,,2013-03-27 12:02:00,
2013-03-27 05:11:00,42.0,35.0,-100.00,East,84,2.0,4.0,77,0.00,,,0.01,0.000000,,2013-03-27 12:11:00,
2013-03-27 05:32:00,41.0,36.0,-100.00,East,79,4.0,5.0,83,0.00,,,0.01,0.000000,,2013-03-27 12:32:00,
2013-03-27 05:43:00,41.0,36.0,-100.00,East,79,4.0,5.0,83,0.00,,,0.01,0.000000,,2013-03-27 12:43:00,
2013-03-27 05:52:00,41.0,36.0,-100.00,East,79,4.0,5.0,83,0.00,,,0.01,0.000000,,2013-03-27 12:52:00,
2013-03-27 06:02:00,41.0,36.0,-100.00,East,79,4.0,5.0,83,0.00,,,0.01,0.000000,,2013-03-27 13:02:00,
2013-03-27 06:11:00,41.0,36.0,-100.00,East,79,4.0,5.0,83,0.00,,,0.01,0.000000,,2013-03-27 13:11:00,
2013-03-27 06:42:00,41.0,37.0,-100.00,East,90,2.0,4.0,85,0.00,,,0.01,0.000000,,2013-03-27 13:42:00,
2013-03-27 06:53:00,41.0,37.0,-100.00,East,90,2.0,4.0,85,0.00,,,0.01,0.000000,,2013-03-27 13:53:00,
2013-03-27 07:02:00,41.0,37.0,-100.00,East,90,2.0,4.0,85,0.00,,,0.01,0.000000,,2013-03-27 14:02:00,
2013-03-27 07:11:00,41.0,37.0,-100.00,East,90,2.0,4.0,85,0.00,,,0.01,0.000000,,2013-03-27 14:11:00,
2013-03-27 07:42:00,40.0,38.0,-100.00,ENE,75,2.0,4.0,91,0.00,,,0.01,3.000000,,2013-03-27 14:42:00,
2013-03-27 07:52:00,40.0,38.0,-100.00,ENE,75,2.0,4.0,91,0.00,,,0.01,3.000000,,2013-03-27 14:52:00,
2013-03-27 08:02:00,40.0,38.0,-100.00,ENE,75,2.0,4.0,91,0.00,,,0.01,3.000000,,2013-03-27 15:02:00,
2013-03-27 08:11:00,40.0,38.0,-100.00,ENE,75,2.0,4.0,91,0.00,,,0.01,3.000000,,2013-03-27 15:11:00,
2013-03-27 08:33:00,41.0,39.0,-100.00,East,81,1.0,3.0,91,0.00,,,0.01,30.000000,,2013-03-27 15:33:00,
2013-03-27 08:43:00,41.0,39.0,-100.00,East,81,1.0,3.0,91,0.00,,,0.01,30.000000,,2013-03-27 15:43:00,
2013-03-27 08:52:00,41.0,39.0,-100.00,East,81,1.0,3.0,91,0.00,,,0.01,30.000000,,2013-03-27 15:52:00,
2013-03-27 09:02:00,41.0,39.0,-100.00,East,81,1.0,3.0,91,0.00,,,0.01,30.000000,,2013-03-27 16:02:00,
2013-03-27 09:12:00,41.0,39.0,-100.00,East,81,1.0,3.0,91,0.00,,,0.01,30.000000,,2013-03-27 16:12:00,
2013-03-27 11:33:00,48.0,40.0,-100.00,East,97,4.0,7.0,74,-99.99,,,-99.99,410.000000,,2013-03-27 18:33:00,
2013-03-27 11:42:00,48.0,40.0,-100.00,East,97,4.0,7.0,74,-99.99,,,-99.99,410.000000,,2013-03-27 18:42:00,
2013-03-27 11:53:00,48.0,40.0,-100.00,East,97,4.0,7.0,74,-99.99,,,-99.99,410.000000,,2013-03-27 18:53:00,
2013-03-27 12:02:00,48.0,40.0,-100.00,East,97,4.0,7.0,74,-99.99,,,-99.99,410.000000,,2013-03-27 19:02:00,
2013-03-27 12:12:00,48.0,40.0,-100.00,East,97,4.0,7.0,74,-99.99,,,-99.99,410.000000,,2013-03-27 19:12:00,
2013-03-27 12:52:00,51.0,40.0,-100.00,East,98,3.0,8.0,66,0.00,,,0.01,432.000000,,2013-03-27 19:52:00,
2013-03-27 13:02:00,51.0,40.0,-100.00,East,98,3.0,8.0,66,0.00,,,0.01,432.000000,,2013-03-27 20:02:00,
2013-03-27 13:12:00,51.0,40.0,-100.00,East,98,3.0,8.0,66,0.00,,,0.01,432.000000,,2013-03-27 20:12:00,
2013-03-27 13:43:00,49.0,39.0,-100.00,East,100,3.0,8.0,69,0.00,,,0.01,290.000000,,2013-03-27 20:43:00,
2013-03-27 13:52:00,49.0,39.0,-100.00,East,100,3.0,8.0,69,0.00,,,0.01,290.000000,,2013-03-27 20:52:00,
2013-03-27 14:02:00,49.0,39.0,-100.00,East,100,3.0,8.0,69,0.00,,,0.01,290.000000,,2013-03-27 21:02:00,
2013-03-27 14:12:00,49.0,39.0,-100.00,East,100,3.0,8.0,69,0.00,,,0.01,290.000000,,2013-03-27 21:12:00,
2013-03-27 14:32:00,56.0,41.0,-100.00,SE,130,3.0,9.0,56,0.00,,,0.01,623.000000,,2013-03-27 21:32:00,
2013-03-27 14:43:00,56.0,41.0,-100.00,SE,130,3.0,9.0,56,0.00,,,0.01,623.000000,,2013-03-27 21:43:00,
2013-03-27 14:52:00,56.0,41.0,-100.00,SE,130,3.0,9.0,56,0.00,,,0.01,623.000000,,2013-03-27 21:52:00,
2013-03-27 15:02:00,56.0,41.0,-100.00,SE,130,3.0,9.0,56,0.00,,,0.01,623.000000,,2013-03-27 22:02:00,
2013-03-27 15:12:00,56.0,41.0,-100.00,SE,130,3.0,9.0,56,0.00,,,0.01,623.000000,,2013-03-27 22:12:00,
2013-03-27 15:42:00,57.0,40.0,-100.00,South,169,3.0,7.0,53,0.00,,,0.01,579.000000,,2013-03-27 22:42:00,
2013-03-27 15:52:00,57.0,40.0,-100.00,South,169,3.0,7.0,53,0.00,,,0.01,579.000000,,2013-03-27 22:52:00,
2013-03-27 16:02:00,57.0,40.0,-100.00,South,169,3.0,7.0,53,0.00,,,0.01,579.000000,,2013-03-27 23:02:00,
2013-03-27 16:11:00,57.0,40.0,-100.00,South,169,3.0,7.0,53,0.00,,,0.01,579.000000,,2013-03-27 23:11:00,
2013-03-27 16:42:00,53.0,41.0,-100.00,NW,305,4.0,9.0,64,0.00,,,0.01,231.000000,,2013-03-27 23:42:00,
2013-03-27 16:52:00,53.0,41.0,-100.00,NW,305,4.0,9.0,64,0.00,,,0.01,231.000000,,2013-03-27 23:52:00,
2013-03-27 17:02:00,53.0,41.0,-100.00,NW,305,4.0,9.0,64,0.00,,,0.01,231.000000,,2013-03-28 00:02:00,
2013-03-27 17:12:00,53.0,41.0,-100.00,NW,305,4.0,9.0,64,0.00,,,0.01,231.000000,,2013-03-28 00:12:00,